Emma Bardán — ECJU — position and weather

sailwx.info

Track history (hours):
 
Tides and Currents Weather Stations Pressure Air Temp Water Temp Dewpoint Dewpoint Depression Visibility Wind Speed Wind Dir Waves Ship Positions

Oceanographic research ship Emma Bardán (Spain)

Ship's website: http://www.mapa.es/es/pesca/pags/emma_web/index.htm

Last reported at 2018-Jun-16 06:29 UTC. Time now 2018-Jun-22 18:41 UTC.
Position N 43°42' W 006°02'.

Length 29 m; draft 3.7 m.

Type: . MMSI: 224756000.

Date/timePositionNaut miles runAvg speedWind from/ knotsBaromVisibWave heightAir tempDewpointWater temp
2018-Jun-16 06:29N 43°42' W 006°02'611.4
2018-Jun-16 05:55N 43°42' W 005°53'911.1
2018-Jun-16 05:06N 43°42' W 005°40'111.0
2018-Jun-16 05:00N 43°42' W 005°39'510.9
2018-Jun-16 04:30N 43°41' W 005°31'510.7
2018-Jun-16 04:00N 43°41' W 005°24'510.5
2018-Jun-16 03:29N 43°40' W 005°17'610.8
2018-Jun-16 02:55N 43°39' W 005°08'5610.7
2018-Jun-15 21:42N 43°34' W 003°52'210.8
2018-Jun-15 21:29N 43°34' W 003°48'510.7
2018-Jun-15 21:00N 43°33' W 003°41'510.7
2018-Jun-15 20:30N 43°33' W 003°34'610.6
2018-Jun-15 19:58N 43°32' W 003°26'510.5
2018-Jun-15 19:30N 43°32' W 003°20'510.5
2018-Jun-15 19:01N 43°31' W 003°12'610.8
2018-Jun-15 18:29N 43°31' W 003°05'510.9
2018-Jun-15 18:00N 43°30' W 002°57'510.9
2018-Jun-15 17:30N 43°30' W 002°50'510.4
2018-Jun-15 17:00N 43°29' W 002°43'510.4
2018-Jun-15 16:31N 43°28' W 002°36'510.1
2018-Jun-15 16:00N 43°27' W 002°29'510.1
2018-Jun-15 15:30N 43°26' W 002°22'510.5
2018-Jun-15 15:01N 43°25' W 002°15'510.8
2018-Jun-15 14:30N 43°23' W 002°08'510.3
2018-Jun-15 14:01N 43°22' W 002°01'5 9.5
2018-Jun-15 13:29N 43°20' W 001°55'0 0.8
2018-Jun-15 13:00N 43°19' W 001°56'1 1.2
2018-Jun-15 12:28N 43°20' W 001°56'1 2.3
2018-Jun-15 12:00N 43°21' W 001°56'510.5
2018-Jun-15 11:31N 43°26' W 001°53'510.9
2018-Jun-15 11:01N 43°31' W 001°51'510.8
2018-Jun-15 10:31N 43°36' W 001°48'510.8
2018-Jun-15 10:00N 43°41' W 001°45'5 9.5
2018-Jun-15 09:31N 43°45' W 001°43'3 6.0
2018-Jun-15 09:00N 43°48' W 001°41'1 2.5
2018-Jun-15 08:30N 43°50' W 001°41'2 3.5
2018-Jun-15 08:01N 43°51' W 001°41'1 1.9
2018-Jun-15 07:30N 43°50' W 001°41'1 2.3
2018-Jun-15 07:00N 43°49' W 001°41'1 2.8
2018-Jun-15 06:30N 43°48' W 001°41'0 0.5
2018-Jun-15 06:00N 43°48' W 001°41'3 6.9
2018-Jun-15 05:30N 43°50' W 001°37'3 6.8
2018-Jun-15 05:00N 43°52' W 001°34'3 6.2
2018-Jun-15 04:31N 43°54' W 001°30'1 1.5
2018-Jun-15 03:59N 43°55' W 001°29'1 1.3
2018-Jun-15 03:29N 43°54' W 001°30'0 0.9
2018-Jun-15 03:00N 43°54' W 001°30'0 0.9
2018-Jun-15 02:31N 43°53' W 001°31'0 1.0
2018-Jun-15 02:01N 43°53' W 001°31'1 1.0
2018-Jun-15 01:25N 43°53' W 001°32'0 1.1
2018-Jun-15 01:00N 43°52' W 001°32'1 1.0
2018-Jun-15 00:26N 43°52' W 001°32'0 1.0
2018-Jun-14 23:59N 43°51' W 001°33'1 0.9
2018-Jun-14 23:20N 43°51' W 001°33'0 0.9
2018-Jun-14 23:00N 43°51' W 001°33'0 0.9
2018-Jun-14 22:30N 43°50' W 001°33'0 0.9
2018-Jun-14 21:58N 43°50' W 001°34'0 0.8
2018-Jun-14 21:29N 43°49' W 001°34'1 0.7
2018-Jun-14 20:41N 43°49' W 001°34'0 0.7
2018-Jun-14 20:22N 43°49' W 001°34'0 0.6
2018-Jun-14 20:00N 43°48' W 001°34'2 3.9
2018-Jun-14 19:30N 43°48' W 001°37'3 6.4
2018-Jun-14 19:00N 43°48' W 001°41'1 2.4
2018-Jun-14 18:30N 43°49' W 001°41'2 2.6
2018-Jun-14 17:38N 43°51' W 001°39'1 4.6
2018-Jun-14 17:30N 43°51' W 001°39'0 0.4
2018-Jun-14 17:00N 43°51' W 001°39'0 0.5
2018-Jun-14 16:30N 43°51' W 001°39'0 0.4
2018-Jun-14 16:00N 43°51' W 001°39'0 0.5
2018-Jun-14 15:30N 43°51' W 001°40'0 0.5
2018-Jun-14 15:00N 43°51' W 001°40'0 0.6
2018-Jun-14 14:31N 43°51' W 001°41'1 2.2
2018-Jun-14 14:01N 43°50' W 001°41'2 3.4
2018-Jun-14 13:31N 43°49' W 001°41'1 1.2
2018-Jun-14 13:00N 43°49' W 001°41'1 2.4
2018-Jun-14 12:30N 43°48' W 001°41'1 3.0
2018-Jun-14 12:01N 43°47' W 001°41'1 1.2
2018-Jun-14 11:30N 43°47' W 001°41'0 0.4
2018-Jun-14 11:00N 43°47' W 001°41'3 5.4
2018-Jun-14 10:30N 43°45' W 001°43'5 9.9
2018-Jun-14 10:00N 43°40' W 001°46'510.0
2018-Jun-14 09:30N 43°36' W 001°50'4 8.1
2018-Jun-14 09:01N 43°33' W 001°53'4 8.5
2018-Jun-14 08:30N 43°29' W 001°56'3 6.3
2018-Jun-14 08:01N 43°27' W 001°58'1 2.4
2018-Jun-14 07:30N 43°26' W 001°59'2 3.4
2018-Jun-14 07:01N 43°25' W 002°01'4 8.0
2018-Jun-14 06:30N 43°22' W 001°57'3 0.2
2018-Jun-13 18:05N 43°19' W 001°56'0 0.0
2018-Jun-13 17:39N 43°19' W 001°56'0 0.0
2018-Jun-13 17:24N 43°19' W 001°56'0 0.0
2018-Jun-13 16:59N 43°19' W 001°56'0 0.0
2018-Jun-13 16:30N 43°19' W 001°56'0 0.0
2018-Jun-13 15:55N 43°19' W 001°56'0 0.0
2018-Jun-13 15:07N 43°19' W 001°56'0 0.0
2018-Jun-13 14:53N 43°19' W 001°56'0 0.0
2018-Jun-13 13:48N 43°19' W 001°56'0 0.0
2018-Jun-13 13:27N 43°19' W 001°56'0 0.0
2018-Jun-13 12:53N 43°19' W 001°56'0 0.0
2018-Jun-13 12:23N 43°19' W 001°56'0 0.0
2018-Jun-13 10:42N 43°19' W 001°56'0 0.0
2018-Jun-13 05:12N 43°19' W 001°56'0 0.0
2018-Jun-13 04:52N 43°19' W 001°56'0 0.0
2018-Jun-13 04:31N 43°19' W 001°56'0 0.0
2018-Jun-13 03:52N 43°19' W 001°56'0 0.0
2018-Jun-13 03:29N 43°19' W 001°56'0 0.0
2018-Jun-13 03:00N 43°19' W 001°56'0 0.0
2018-Jun-13 02:30N 43°19' W 001°56'0 0.0
2018-Jun-13 02:00N 43°19' W 001°56'0 0.0
2018-Jun-13 01:30N 43°19' W 001°56'0 0.0
2018-Jun-13 01:00N 43°19' W 001°56'0 0.0
2018-Jun-13 00:30N 43°19' W 001°56'0 0.0
2018-Jun-12 23:08N 43°19' W 001°56'0 0.0
2018-Jun-12 20:55N 43°19' W 001°56'0 0.0
2018-Jun-12 19:29N 43°19' W 001°56'0 0.0
2018-Jun-12 17:37N 43°19' W 001°56'0 0.0
2018-Jun-12 17:19N 43°19' W 001°56'0 0.0
2018-Jun-12 16:58N 43°19' W 001°56'0 0.0
2018-Jun-12 16:30N 43°19' W 001°56'0 0.0
2018-Jun-12 15:59N 43°19' W 001°56'0 0.0
2018-Jun-12 15:29N 43°19' W 001°56'0 0.0
2018-Jun-12 14:59N 43°19' W 001°56'0 0.0
2018-Jun-12 14:30N 43°19' W 001°56'0 0.0
2018-Jun-12 14:00N 43°19' W 001°56'0 0.0
2018-Jun-12 13:30N 43°19' W 001°56'0 0.0
2018-Jun-12 13:00N 43°19' W 001°56'0 0.0
2018-Jun-12 12:28N 43°19' W 001°56'0 0.0
2018-Jun-12 11:52N 43°19' W 001°56'0 0.0
2018-Jun-12 09:09N 43°19' W 001°56'0 2.3
2018-Jun-12 09:00N 43°19' W 001°55'0 0.6
2018-Jun-12 08:31N 43°19' W 001°55'1 0.4
2018-Jun-12 07:03N 43°19' W 001°56'0 0.0
2018-Jun-12 06:47N 43°19' W 001°56'0 0.0
2018-Jun-12 06:26N 43°19' W 001°56'0 0.0
2018-Jun-12 06:00N 43°19' W 001°56'0 0.0
2018-Jun-12 03:46N 43°19' W 001°56'0 0.0
2018-Jun-11 16:47N 43°19' W 001°56'2 6.0
2018-Jun-11 16:30N 43°21' W 001°56'510.6
2018-Jun-11 16:00N 43°22' W 002°03'510.5
2018-Jun-11 15:31N 43°23' W 002°10'4 7.5
2018-Jun-11 15:01N 43°24' W 002°15'1 2.1
2018-Jun-11 14:31N 43°25' W 002°14'2 3.4
2018-Jun-11 14:01N 43°25' W 002°12'1 2.3
2018-Jun-11 13:31N 43°24' W 002°13'2 3.8
2018-Jun-11 13:01N 43°24' W 002°15'2 3.1
2018-Jun-11 12:30N 43°25' W 002°14'1 2.9
2018-Jun-11 12:01N 43°25' W 002°12'1 2.5
2018-Jun-11 11:30N 43°24' W 002°10'0 1.0
2018-Jun-11 11:01N 43°24' W 002°11'1 2.7
2018-Jun-11 10:31N 43°23' W 002°12'1 1.2
2018-Jun-11 10:00N 43°24' W 002°13'0 0.8
2018-Jun-11 09:30N 43°24' W 002°13'1 1.4
2018-Jun-11 09:01N 43°25' W 002°13'1 2.6
2018-Jun-11 08:30N 43°25' W 002°12'1 1.5
2018-Jun-11 08:00N 43°25' W 002°11'3 6.0
2018-Jun-11 07:30N 43°24' W 002°07'510.9
2018-Jun-11 07:01N 43°22' W 001°60'4 4.7
2018-Jun-11 06:12N 43°19' W 001°56'0 0.0
2018-Jun-11 05:49N 43°19' W 001°56'0 0.0
2018-Jun-11 05:27N 43°19' W 001°56'0 0.0
2018-Jun-11 03:59N 43°19' W 001°56'0 0.0
2018-Jun-11 03:30N 43°19' W 001°56'0 0.0
2018-Jun-11 02:59N 43°19' W 001°56'0 0.0
2018-Jun-11 02:30N 43°19' W 001°56'0 0.0
2018-Jun-11 01:59N 43°19' W 001°56'0 0.0
2018-Jun-11 01:29N 43°19' W 001°56'0 0.0
2018-Jun-11 01:00N 43°19' W 001°56'0 0.0
2018-Jun-11 00:30N 43°19' W 001°56'0 0.0
2018-Jun-11 00:00N 43°19' W 001°56'0 0.0
2018-Jun-10 23:30N 43°19' W 001°56'0 0.0
2018-Jun-10 22:59N 43°19' W 001°56'0 0.0
2018-Jun-10 22:26N 43°19' W 001°56'0 0.0
2018-Jun-10 22:00N 43°19' W 001°56'0 0.0
2018-Jun-10 21:30N 43°19' W 001°56'0 0.0
2018-Jun-10 21:00N 43°19' W 001°56'0 0.0
2018-Jun-10 20:30N 43°19' W 001°56'0 0.0
2018-Jun-10 20:00N 43°19' W 001°56'0 0.0
2018-Jun-10 19:30N 43°19' W 001°56'0 0.0
2018-Jun-10 19:00N 43°19' W 001°56'0 0.0
2018-Jun-10 18:30N 43°19' W 001°56'0 0.0
2018-Jun-10 18:00N 43°19' W 001°56'2 3.9
2018-Jun-10 17:30N 43°21' W 001°56'510.8
2018-Jun-10 17:01N 43°26' W 001°53'510.9
2018-Jun-10 16:30N 43°31' W 001°50'4 8.7
2018-Jun-10 16:00N 43°36' W 001°49'510.8
2018-Jun-10 15:30N 43°41' W 001°46'511.1
2018-Jun-10 15:00N 43°46' W 001°44'3 6.0
2018-Jun-10 14:30N 43°49' W 001°42'3 2.7
2018-Jun-10 13:30N 43°51' W 001°41'1 1.8
2018-Jun-10 13:01N 43°50' W 001°41'1 2.1
2018-Jun-10 12:30N 43°49' W 001°40'1 2.9
2018-Jun-10 12:00N 43°48' W 001°41'1 2.0
2018-Jun-10 11:30N 43°47' W 001°41'0 0.4
2018-Jun-10 11:00N 43°47' W 001°41'0 0.5
2018-Jun-10 10:29N 43°47' W 001°41'0 0.5
2018-Jun-10 10:00N 43°48' W 001°41'1 2.0
2018-Jun-10 09:31N 43°49' W 001°41'1 2.5
2018-Jun-10 09:00N 43°50' W 001°41'2 3.5
2018-Jun-10 08:30N 43°52' W 001°40'1 1.0
2018-Jun-10 08:00N 43°51' W 001°40'1 2.1
2018-Jun-10 07:31N 43°50' W 001°41'1 1.5
2018-Jun-10 07:01N 43°49' W 001°40'1 2.7
2018-Jun-10 06:31N 43°48' W 001°41'1 2.7
2018-Jun-10 06:01N 43°47' W 001°41'3 5.9
2018-Jun-10 05:30N 43°47' W 001°37'2 4.6
2018-Jun-10 05:00N 43°47' W 001°34'0 0.9
2018-Jun-10 04:29N 43°47' W 001°34'0 0.9
2018-Jun-10 04:00N 43°47' W 001°35'0 1.0
2018-Jun-10 03:30N 43°47' W 001°36'0 0.9
2018-Jun-10 03:00N 43°48' W 001°36'0 0.9
2018-Jun-10 02:31N 43°48' W 001°37'0 0.9
2018-Jun-10 02:01N 43°48' W 001°37'0 0.8
2018-Jun-10 01:31N 43°48' W 001°38'0 0.7
2018-Jun-10 01:00N 43°47' W 001°38'0 0.6
2018-Jun-10 00:30N 43°47' W 001°39'0 0.5
2018-Jun-10 00:00N 43°47' W 001°39'0 0.5
2018-Jun-09 23:30N 43°47' W 001°39'0 0.5
2018-Jun-09 22:59N 43°46' W 001°39'0 0.5
2018-Jun-09 22:24N 43°46' W 001°39'0 0.6
2018-Jun-09 22:00N 43°46' W 001°38'0 0.7
2018-Jun-09 21:30N 43°46' W 001°38'0 0.9
2018-Jun-09 21:00N 43°46' W 001°37'0 1.0
2018-Jun-09 20:30N 43°46' W 001°37'0 1.0
2018-Jun-09 20:00N 43°46' W 001°36'3 6.9
2018-Jun-09 19:30N 43°47' W 001°41'2 2.9
2018-Jun-09 18:59N 43°48' W 001°42'1 2.9
2018-Jun-09 18:31N 43°49' W 001°42'2 3.4
2018-Jun-09 18:00N 43°51' W 001°41'1 2.0
2018-Jun-09 17:30N 43°50' W 001°42'0 0.7
2018-Jun-09 17:00N 43°50' W 001°42'0 0.7
2018-Jun-09 16:30N 43°51' W 001°42'0 0.5
2018-Jun-09 16:00N 43°51' W 001°42'0 0.3
2018-Jun-09 15:30N 43°51' W 001°42'1 1.4
2018-Jun-09 14:30N 43°50' W 001°41'2 3.1
2018-Jun-09 14:00N 43°48' W 001°41'1 1.6
2018-Jun-09 13:30N 43°47' W 001°42'0 0.9
2018-Jun-09 13:00N 43°47' W 001°41'1 2.0
2018-Jun-09 12:30N 43°48' W 001°41'1 2.9
2018-Jun-09 12:01N 43°50' W 001°41'1 1.5
2018-Jun-09 11:31N 43°51' W 001°41'0 0.3
2018-Jun-09 11:01N 43°51' W 001°42'1 1.9
2018-Jun-09 10:31N 43°50' W 001°41'1 2.3
2018-Jun-09 10:01N 43°49' W 001°41'2 3.2
2018-Jun-09 09:31N 43°47' W 001°41'3 5.7
2018-Jun-09 09:01N 43°44' W 001°42'611.1
2018-Jun-09 08:31N 43°39' W 001°45'611.1
2018-Jun-09 08:00N 43°34' W 001°48'510.8
2018-Jun-09 07:30N 43°29' W 001°51'510.7
2018-Jun-09 07:01N 43°24' W 001°54'5 9.0
2018-Jun-09 06:29N 43°20' W 001°55'0 0.9
2018-Jun-09 06:00N 43°19' W 001°56'0 0.0
2018-Jun-09 02:59N 43°19' W 001°56'0 0.0
2018-Jun-09 02:30N 43°19' W 001°56'0 0.0
2018-Jun-09 01:59N 43°19' W 001°56'0 0.0
2018-Jun-09 01:17N 43°19' W 001°56'0 0.0
2018-Jun-09 00:56N 43°19' W 001°56'0 0.0
2018-Jun-09 00:29N 43°19' W 001°56'0 0.0
2018-Jun-08 23:53N 43°19' W 001°56'0 0.0
2018-Jun-08 23:30N 43°19' W 001°56'0 0.0
2018-Jun-08 22:56N 43°19' W 001°56'0 0.0
2018-Jun-08 22:29N 43°19' W 001°56'0 0.0
2018-Jun-08 21:59N 43°19' W 001°56'0 0.0
2018-Jun-08 21:25N 43°19' W 001°56'0 0.0
2018-Jun-08 20:52N 43°19' W 001°56'0 0.0
2018-Jun-08 20:28N 43°19' W 001°56'0 0.0
2018-Jun-08 16:02N 43°19' W 001°56'0 0.0
2018-Jun-08 15:49N 43°19' W 001°56'1 2.0
2018-Jun-08 15:30N 43°20' W 001°55'510.2
2018-Jun-08 15:01N 43°25' W 001°54'510.8
2018-Jun-08 14:30N 43°30' W 001°51'510.9
2018-Jun-08 14:00N 43°35' W 001°48'611.1
2018-Jun-08 13:30N 43°40' W 001°45'611.2
2018-Jun-08 13:00N 43°45' W 001°42'3 5.3
2018-Jun-08 12:30N 43°48' W 001°41'1 2.9
2018-Jun-08 12:01N 43°49' W 001°40'2 3.3
2018-Jun-08 11:30N 43°50' W 001°39'0 0.5
2018-Jun-08 11:01N 43°51' W 001°39'0 0.6
2018-Jun-08 10:30N 43°51' W 001°40'0 0.3
2018-Jun-08 10:00N 43°50' W 001°40'1 2.1
2018-Jun-08 09:30N 43°50' W 001°40'1 2.9
2018-Jun-08 09:00N 43°48' W 001°41'1 1.7
2018-Jun-08 08:30N 43°47' W 001°40'0 0.2
2018-Jun-08 08:00N 43°47' W 001°41'0 0.2
2018-Jun-08 07:31N 43°47' W 001°41'1 2.6
2018-Jun-08 07:00N 43°49' W 001°41'1 2.9
2018-Jun-08 06:31N 43°50' W 001°41'1 2.2
2018-Jun-08 06:00N 43°51' W 001°41'3 6.7
2018-Jun-08 05:30N 43°48' W 001°42'0 0.7
2018-Jun-08 05:00N 43°48' W 001°42'0 0.6
2018-Jun-08 04:30N 43°47' W 001°42'0 0.7
2018-Jun-08 04:00N 43°47' W 001°42'0 0.7
2018-Jun-08 03:30N 43°47' W 001°42'0 0.8
2018-Jun-08 03:01N 43°46' W 001°42'0 0.7
2018-Jun-08 02:30N 43°46' W 001°41'0 0.7
2018-Jun-08 02:01N 43°46' W 001°41'0 0.7
2018-Jun-08 01:30N 43°46' W 001°40'0 0.5
2018-Jun-08 01:00N 43°46' W 001°40'0 0.6
2018-Jun-08 00:30N 43°46' W 001°40'0 0.6
2018-Jun-08 00:00N 43°46' W 001°39'0 0.6
2018-Jun-07 23:30N 43°46' W 001°39'0 0.6
2018-Jun-07 23:01N 43°46' W 001°39'0 0.6
2018-Jun-07 22:30N 43°46' W 001°38'0 0.7
2018-Jun-07 22:00N 43°47' W 001°38'0 0.7
2018-Jun-07 21:30N 43°47' W 001°38'0 0.7
2018-Jun-07 21:00N 43°47' W 001°37'0 0.8
2018-Jun-07 20:30N 43°48' W 001°37'0 0.8
2018-Jun-07 20:00N 43°48' W 001°37'1 2.2
2018-Jun-07 19:30N 43°48' W 001°38'3 6.0
2018-Jun-07 19:00N 43°49' W 001°42'1 2.4
2018-Jun-07 18:30N 43°50' W 001°42'2 3.3
2018-Jun-07 17:49N 43°52' W 001°41'1 1.8
2018-Jun-07 17:31N 43°51' W 001°41'2 3.6
2018-Jun-07 17:00N 43°50' W 001°42'0 0.7
2018-Jun-07 16:31N 43°50' W 001°41'0 0.7
2018-Jun-07 16:00N 43°50' W 001°41'0 0.7
2018-Jun-07 15:30N 43°50' W 001°41'0 0.6
2018-Jun-07 15:00N 43°51' W 001°41'0 0.6
2018-Jun-07 14:30N 43°51' W 001°41'0 0.6
2018-Jun-07 14:00N 43°51' W 001°41'0 0.6
2018-Jun-07 13:30N 43°51' W 001°41'1 1.0
2018-Jun-07 13:00N 43°51' W 001°41'1 2.3
2018-Jun-07 12:30N 43°50' W 001°41'1 2.9
2018-Jun-07 12:00N 43°48' W 001°41'1 1.6
2018-Jun-07 11:30N 43°48' W 001°41'0 0.7
2018-Jun-07 11:00N 43°48' W 001°41'0 0.6
2018-Jun-07 10:30N 43°48' W 001°42'0 0.7
2018-Jun-07 10:00N 43°48' W 001°41'1 1.9
2018-Jun-07 09:30N 43°49' W 001°41'1 2.9
2018-Jun-07 09:01N 43°50' W 001°41'2 3.5
2018-Jun-07 08:30N 43°52' W 001°41'1 1.7
2018-Jun-07 08:00N 43°51' W 001°41'1 2.8
2018-Jun-07 07:31N 43°50' W 001°41'1 2.4
2018-Jun-07 07:00N 43°49' W 001°41'2 3.1
2018-Jun-07 06:30N 43°47' W 001°41'3 5.6
2018-Jun-07 06:00N 43°50' W 001°41'3 6.5
2018-Jun-07 05:30N 43°49' W 001°37'3 6.9
2018-Jun-07 05:00N 43°47' W 001°33'1 2.5
2018-Jun-07 04:30N 43°46' W 001°31'0 0.8
2018-Jun-07 04:00N 43°46' W 001°32'0 0.8
2018-Jun-07 03:30N 43°46' W 001°33'0 0.7
2018-Jun-07 03:00N 43°46' W 001°33'0 0.7
2018-Jun-07 02:30N 43°45' W 001°33'0 0.7
2018-Jun-07 02:01N 43°45' W 001°34'0 0.6
2018-Jun-07 01:30N 43°45' W 001°34'0 0.6
2018-Jun-07 01:00N 43°45' W 001°35'0 0.6
2018-Jun-07 00:30N 43°45' W 001°35'0 0.6
2018-Jun-07 00:00N 43°45' W 001°36'0 0.7
2018-Jun-06 23:30N 43°45' W 001°36'0 0.5
2018-Jun-06 23:00N 43°45' W 001°36'0 0.5
2018-Jun-06 22:30N 43°45' W 001°37'0 0.4
2018-Jun-06 22:00N 43°45' W 001°37'0 0.4
2018-Jun-06 21:31N 43°45' W 001°37'0 0.5
2018-Jun-06 21:01N 43°45' W 001°38'0 0.5
2018-Jun-06 20:31N 43°46' W 001°38'1 2.3
2018-Jun-06 19:59N 43°46' W 001°40'2 3.3
2018-Jun-06 19:30N 43°46' W 001°42'2 3.5
2018-Jun-06 19:00N 43°47' W 001°44'1 2.8
2018-Jun-06 18:30N 43°48' W 001°44'2 3.2
2018-Jun-06 18:00N 43°50' W 001°44'1 1.8
2018-Jun-06 17:30N 43°50' W 001°43'1 2.0
2018-Jun-06 17:00N 43°51' W 001°43'4 8.4
2018-Jun-06 16:30N 43°55' W 001°40'4 8.3
2018-Jun-06 16:00N 43°59' W 001°37'0 0.5
2018-Jun-06 15:30N 43°59' W 001°37'0 0.4
2018-Jun-06 15:00N 43°59' W 001°38'0 0.6
2018-Jun-06 14:30N 43°59' W 001°38'0 0.5
2018-Jun-06 14:00N 43°59' W 001°38'0 0.5
2018-Jun-06 13:31N 43°59' W 001°38'0 0.6
2018-Jun-06 13:00N 43°60' W 001°39'1 1.7
2018-Jun-06 12:30N 43°59' W 001°39'2 3.2
2018-Jun-06 12:00N 43°57' W 001°39'1 1.8
2018-Jun-06 11:30N 43°58' W 001°40'0 0.5
2018-Jun-06 11:00N 43°58' W 001°40'1 2.0
2018-Jun-06 10:30N 43°59' W 001°41'2 4.6
2018-Jun-06 10:00N 44°00' W 001°44'1 2.2
2018-Jun-06 09:30N 43°59' W 001°44'1 2.8
2018-Jun-06 09:01N 43°58' W 001°44'1 2.5
2018-Jun-06 08:30N 43°57' W 001°44'3 6.5
2018-Jun-06 07:59N 43°60' W 001°43'1 2.0
2018-Jun-06 07:30N 44°00' W 001°44'1 2.2
2018-Jun-06 07:00N 43°59' W 001°45'1 2.8
2018-Jun-06 06:30N 43°58' W 001°45'  
Track history (hours):
 
Tides and Currents Weather Stations Pressure Air Temp Water Temp Dewpoint Dewpoint Depression Visibility Wind Speed Wind Dir Waves Ship Positions

Oceanographic research ship Emma Bardán (Spain)

Ship's website: http://www.mapa.es/es/pesca/pags/emma_web/index.htm

Last reported at 2018-Jun-16 06:29 UTC. Time now 2018-Jun-22 18:41 UTC.
Position N 43°42' W 006°02'.

Length 29 m; draft 3.7 m.

Type: . MMSI: 224756000.

Date/timePositionNaut miles runAvg speedWind from/ knotsBaromVisibWave heightAir tempDewpointWater temp
2018-Jun-16 06:29N 43°42' W 006°02'611.4
2018-Jun-16 05:55N 43°42' W 005°53'911.1
2018-Jun-16 05:06N 43°42' W 005°40'111.0
2018-Jun-16 05:00N 43°42' W 005°39'510.9
2018-Jun-16 04:30N 43°41' W 005°31'510.7
2018-Jun-16 04:00N 43°41' W 005°24'510.5
2018-Jun-16 03:29N 43°40' W 005°17'610.8
2018-Jun-16 02:55N 43°39' W 005°08'5610.7
2018-Jun-15 21:42N 43°34' W 003°52'210.8
2018-Jun-15 21:29N 43°34' W 003°48'510.7
2018-Jun-15 21:00N 43°33' W 003°41'510.7
2018-Jun-15 20:30N 43°33' W 003°34'610.6
2018-Jun-15 19:58N 43°32' W 003°26'510.5
2018-Jun-15 19:30N 43°32' W 003°20'510.5
2018-Jun-15 19:01N 43°31' W 003°12'610.8
2018-Jun-15 18:29N 43°31' W 003°05'510.9
2018-Jun-15 18:00N 43°30' W 002°57'510.9
2018-Jun-15 17:30N 43°30' W 002°50'510.4
2018-Jun-15 17:00N 43°29' W 002°43'510.4
2018-Jun-15 16:31N 43°28' W 002°36'510.1
2018-Jun-15 16:00N 43°27' W 002°29'510.1
2018-Jun-15 15:30N 43°26' W 002°22'510.5
2018-Jun-15 15:01N 43°25' W 002°15'510.8
2018-Jun-15 14:30N 43°23' W 002°08'510.3
2018-Jun-15 14:01N 43°22' W 002°01'5 9.5
2018-Jun-15 13:29N 43°20' W 001°55'0 0.8
2018-Jun-15 13:00N 43°19' W 001°56'1 1.2
2018-Jun-15 12:28N 43°20' W 001°56'1 2.3
2018-Jun-15 12:00N 43°21' W 001°56'510.5
2018-Jun-15 11:31N 43°26' W 001°53'510.9
2018-Jun-15 11:01N 43°31' W 001°51'510.8
2018-Jun-15 10:31N 43°36' W 001°48'510.8
2018-Jun-15 10:00N 43°41' W 001°45'5 9.5
2018-Jun-15 09:31N 43°45' W 001°43'3 6.0
2018-Jun-15 09:00N 43°48' W 001°41'1 2.5
2018-Jun-15 08:30N 43°50' W 001°41'2 3.5
2018-Jun-15 08:01N 43°51' W 001°41'1 1.9
2018-Jun-15 07:30N 43°50' W 001°41'1 2.3
2018-Jun-15 07:00N 43°49' W 001°41'1 2.8
2018-Jun-15 06:30N 43°48' W 001°41'0 0.5
2018-Jun-15 06:00N 43°48' W 001°41'3 6.9
2018-Jun-15 05:30N 43°50' W 001°37'3 6.8
2018-Jun-15 05:00N 43°52' W 001°34'3 6.2
2018-Jun-15 04:31N 43°54' W 001°30'1 1.5
2018-Jun-15 03:59N 43°55' W 001°29'1 1.3
2018-Jun-15 03:29N 43°54' W 001°30'0 0.9
2018-Jun-15 03:00N 43°54' W 001°30'0 0.9
2018-Jun-15 02:31N 43°53' W 001°31'0 1.0
2018-Jun-15 02:01N 43°53' W 001°31'1 1.0
2018-Jun-15 01:25N 43°53' W 001°32'0 1.1
2018-Jun-15 01:00N 43°52' W 001°32'1 1.0
2018-Jun-15 00:26N 43°52' W 001°32'0 1.0
2018-Jun-14 23:59N 43°51' W 001°33'1 0.9
2018-Jun-14 23:20N 43°51' W 001°33'0 0.9
2018-Jun-14 23:00N 43°51' W 001°33'0 0.9
2018-Jun-14 22:30N 43°50' W 001°33'0 0.9
2018-Jun-14 21:58N 43°50' W 001°34'0 0.8
2018-Jun-14 21:29N 43°49' W 001°34'1 0.7
2018-Jun-14 20:41N 43°49' W 001°34'0 0.7
2018-Jun-14 20:22N 43°49' W 001°34'0 0.6
2018-Jun-14 20:00N 43°48' W 001°34'2 3.9
2018-Jun-14 19:30N 43°48' W 001°37'3 6.4
2018-Jun-14 19:00N 43°48' W 001°41'1 2.4
2018-Jun-14 18:30N 43°49' W 001°41'2 2.6
2018-Jun-14 17:38N 43°51' W 001°39'1 4.6
2018-Jun-14 17:30N 43°51' W 001°39'0 0.4
2018-Jun-14 17:00N 43°51' W 001°39'0 0.5
2018-Jun-14 16:30N 43°51' W 001°39'0 0.4
2018-Jun-14 16:00N 43°51' W 001°39'0 0.5
2018-Jun-14 15:30N 43°51' W 001°40'0 0.5
2018-Jun-14 15:00N 43°51' W 001°40'0 0.6
2018-Jun-14 14:31N 43°51' W 001°41'1 2.2
2018-Jun-14 14:01N 43°50' W 001°41'2 3.4
2018-Jun-14 13:31N 43°49' W 001°41'1 1.2
2018-Jun-14 13:00N 43°49' W 001°41'1 2.4
2018-Jun-14 12:30N 43°48' W 001°41'1 3.0
2018-Jun-14 12:01N 43°47' W 001°41'1 1.2
2018-Jun-14 11:30N 43°47' W 001°41'0 0.4
2018-Jun-14 11:00N 43°47' W 001°41'3 5.4
2018-Jun-14 10:30N 43°45' W 001°43'5 9.9
2018-Jun-14 10:00N 43°40' W 001°46'510.0
2018-Jun-14 09:30N 43°36' W 001°50'4 8.1
2018-Jun-14 09:01N 43°33' W 001°53'4 8.5
2018-Jun-14 08:30N 43°29' W 001°56'3 6.3
2018-Jun-14 08:01N 43°27' W 001°58'1 2.4
2018-Jun-14 07:30N 43°26' W 001°59'2 3.4
2018-Jun-14 07:01N 43°25' W 002°01'4 8.0
2018-Jun-14 06:30N 43°22' W 001°57'3 0.2
2018-Jun-13 18:05N 43°19' W 001°56'0 0.0
2018-Jun-13 17:39N 43°19' W 001°56'0 0.0
2018-Jun-13 17:24N 43°19' W 001°56'0 0.0
2018-Jun-13 16:59N 43°19' W 001°56'0 0.0
2018-Jun-13 16:30N 43°19' W 001°56'0 0.0
2018-Jun-13 15:55N 43°19' W 001°56'0 0.0
2018-Jun-13 15:07N 43°19' W 001°56'0 0.0
2018-Jun-13 14:53N 43°19' W 001°56'0 0.0
2018-Jun-13 13:48N 43°19' W 001°56'0 0.0
2018-Jun-13 13:27N 43°19' W 001°56'0 0.0
2018-Jun-13 12:53N 43°19' W 001°56'0 0.0
2018-Jun-13 12:23N 43°19' W 001°56'0 0.0
2018-Jun-13 10:42N 43°19' W 001°56'0 0.0
2018-Jun-13 05:12N 43°19' W 001°56'0 0.0
2018-Jun-13 04:52N 43°19' W 001°56'0 0.0
2018-Jun-13 04:31N 43°19' W 001°56'0 0.0
2018-Jun-13 03:52N 43°19' W 001°56'0 0.0
2018-Jun-13 03:29N 43°19' W 001°56'0 0.0
2018-Jun-13 03:00N 43°19' W 001°56'0 0.0
2018-Jun-13 02:30N 43°19' W 001°56'0 0.0
2018-Jun-13 02:00N 43°19' W 001°56'0 0.0
2018-Jun-13 01:30N 43°19' W 001°56'0 0.0
2018-Jun-13 01:00N 43°19' W 001°56'0 0.0
2018-Jun-13 00:30N 43°19' W 001°56'0 0.0
2018-Jun-12 23:08N 43°19' W 001°56'0 0.0
2018-Jun-12 20:55N 43°19' W 001°56'0 0.0
2018-Jun-12 19:29N 43°19' W 001°56'0 0.0
2018-Jun-12 17:37N 43°19' W 001°56'0 0.0
2018-Jun-12 17:19N 43°19' W 001°56'0 0.0
2018-Jun-12 16:58N 43°19' W 001°56'0 0.0
2018-Jun-12 16:30N 43°19' W 001°56'0 0.0
2018-Jun-12 15:59N 43°19' W 001°56'0 0.0
2018-Jun-12 15:29N 43°19' W 001°56'0 0.0
2018-Jun-12 14:59N 43°19' W 001°56'0 0.0
2018-Jun-12 14:30N 43°19' W 001°56'0 0.0
2018-Jun-12 14:00N 43°19' W 001°56'0 0.0
2018-Jun-12 13:30N 43°19' W 001°56'0 0.0
2018-Jun-12 13:00N 43°19' W 001°56'0 0.0
2018-Jun-12 12:28N 43°19' W 001°56'0 0.0
2018-Jun-12 11:52N 43°19' W 001°56'0 0.0
2018-Jun-12 09:09N 43°19' W 001°56'0 2.3
2018-Jun-12 09:00N 43°19' W 001°55'0 0.6
2018-Jun-12 08:31N 43°19' W 001°55'1 0.4
2018-Jun-12 07:03N 43°19' W 001°56'0 0.0
2018-Jun-12 06:47N 43°19' W 001°56'0 0.0
2018-Jun-12 06:26N 43°19' W 001°56'0 0.0
2018-Jun-12 06:00N 43°19' W 001°56'0 0.0
2018-Jun-12 03:46N 43°19' W 001°56'0 0.0
2018-Jun-11 16:47N 43°19' W 001°56'2 6.0
2018-Jun-11 16:30N 43°21' W 001°56'510.6
2018-Jun-11 16:00N 43°22' W 002°03'510.5
2018-Jun-11 15:31N 43°23' W 002°10'4 7.5
2018-Jun-11 15:01N 43°24' W 002°15'1 2.1
2018-Jun-11 14:31N 43°25' W 002°14'2 3.4
2018-Jun-11 14:01N 43°25' W 002°12'1 2.3
2018-Jun-11 13:31N 43°24' W 002°13'2 3.8
2018-Jun-11 13:01N 43°24' W 002°15'2 3.1
2018-Jun-11 12:30N 43°25' W 002°14'1 2.9
2018-Jun-11 12:01N 43°25' W 002°12'1 2.5
2018-Jun-11 11:30N 43°24' W 002°10'0 1.0
2018-Jun-11 11:01N 43°24' W 002°11'1 2.7
2018-Jun-11 10:31N 43°23' W 002°12'1 1.2
2018-Jun-11 10:00N 43°24' W 002°13'0 0.8
2018-Jun-11 09:30N 43°24' W 002°13'1 1.4
2018-Jun-11 09:01N 43°25' W 002°13'1 2.6
2018-Jun-11 08:30N 43°25' W 002°12'1 1.5
2018-Jun-11 08:00N 43°25' W 002°11'3 6.0
2018-Jun-11 07:30N 43°24' W 002°07'510.9
2018-Jun-11 07:01N 43°22' W 001°60'4 4.7
2018-Jun-11 06:12N 43°19' W 001°56'0 0.0
2018-Jun-11 05:49N 43°19' W 001°56'0 0.0
2018-Jun-11 05:27N 43°19' W 001°56'0 0.0
2018-Jun-11 03:59N 43°19' W 001°56'0 0.0
2018-Jun-11 03:30N 43°19' W 001°56'0 0.0
2018-Jun-11 02:59N 43°19' W 001°56'0 0.0
2018-Jun-11 02:30N 43°19' W 001°56'0 0.0
2018-Jun-11 01:59N 43°19' W 001°56'0 0.0
2018-Jun-11 01:29N 43°19' W 001°56'0 0.0
2018-Jun-11 01:00N 43°19' W 001°56'0 0.0
2018-Jun-11 00:30N 43°19' W 001°56'0 0.0
2018-Jun-11 00:00N 43°19' W 001°56'0 0.0
2018-Jun-10 23:30N 43°19' W 001°56'0 0.0
2018-Jun-10 22:59N 43°19' W 001°56'0 0.0
2018-Jun-10 22:26N 43°19' W 001°56'0 0.0
2018-Jun-10 22:00N 43°19' W 001°56'0 0.0
2018-Jun-10 21:30N 43°19' W 001°56'0 0.0
2018-Jun-10 21:00N 43°19' W 001°56'0 0.0
2018-Jun-10 20:30N 43°19' W 001°56'0 0.0
2018-Jun-10 20:00N 43°19' W 001°56'0 0.0
2018-Jun-10 19:30N 43°19' W 001°56'0 0.0
2018-Jun-10 19:00N 43°19' W 001°56'0 0.0
2018-Jun-10 18:30N 43°19' W 001°56'0 0.0
2018-Jun-10 18:00N 43°19' W 001°56'2 3.9
2018-Jun-10 17:30N 43°21' W 001°56'510.8
2018-Jun-10 17:01N 43°26' W 001°53'510.9
2018-Jun-10 16:30N 43°31' W 001°50'4 8.7
2018-Jun-10 16:00N 43°36' W 001°49'510.8
2018-Jun-10 15:30N 43°41' W 001°46'511.1
2018-Jun-10 15:00N 43°46' W 001°44'3 6.0
2018-Jun-10 14:30N 43°49' W 001°42'3 2.7
2018-Jun-10 13:30N 43°51' W 001°41'1 1.8
2018-Jun-10 13:01N 43°50' W 001°41'1 2.1
2018-Jun-10 12:30N 43°49' W 001°40'1 2.9
2018-Jun-10 12:00N 43°48' W 001°41'1 2.0
2018-Jun-10 11:30N 43°47' W 001°41'0 0.4
2018-Jun-10 11:00N 43°47' W 001°41'0 0.5
2018-Jun-10 10:29N 43°47' W 001°41'0 0.5
2018-Jun-10 10:00N 43°48' W 001°41'1 2.0
2018-Jun-10 09:31N 43°49' W 001°41'1 2.5
2018-Jun-10 09:00N 43°50' W 001°41'2 3.5
2018-Jun-10 08:30N 43°52' W 001°40'1 1.0
2018-Jun-10 08:00N 43°51' W 001°40'1 2.1
2018-Jun-10 07:31N 43°50' W 001°41'1 1.5
2018-Jun-10 07:01N 43°49' W 001°40'1 2.7
2018-Jun-10 06:31N 43°48' W 001°41'1 2.7
2018-Jun-10 06:01N 43°47' W 001°41'3 5.9
2018-Jun-10 05:30N 43°47' W 001°37'2 4.6
2018-Jun-10 05:00N 43°47' W 001°34'0 0.9
2018-Jun-10 04:29N 43°47' W 001°34'0 0.9
2018-Jun-10 04:00N 43°47' W 001°35'0 1.0
2018-Jun-10 03:30N 43°47' W 001°36'0 0.9
2018-Jun-10 03:00N 43°48' W 001°36'0 0.9
2018-Jun-10 02:31N 43°48' W 001°37'0 0.9
2018-Jun-10 02:01N 43°48' W 001°37'0 0.8
2018-Jun-10 01:31N 43°48' W 001°38'0 0.7
2018-Jun-10 01:00N 43°47' W 001°38'0 0.6
2018-Jun-10 00:30N 43°47' W 001°39'0 0.5
2018-Jun-10 00:00N 43°47' W 001°39'0 0.5
2018-Jun-09 23:30N 43°47' W 001°39'0 0.5
2018-Jun-09 22:59N 43°46' W 001°39'0 0.5
2018-Jun-09 22:24N 43°46' W 001°39'0 0.6
2018-Jun-09 22:00N 43°46' W 001°38'0 0.7
2018-Jun-09 21:30N 43°46' W 001°38'0 0.9
2018-Jun-09 21:00N 43°46' W 001°37'0 1.0
2018-Jun-09 20:30N 43°46' W 001°37'0 1.0
2018-Jun-09 20:00N 43°46' W 001°36'3 6.9
2018-Jun-09 19:30N 43°47' W 001°41'2 2.9
2018-Jun-09 18:59N 43°48' W 001°42'1 2.9
2018-Jun-09 18:31N 43°49' W 001°42'2 3.4
2018-Jun-09 18:00N 43°51' W 001°41'1 2.0
2018-Jun-09 17:30N 43°50' W 001°42'0 0.7
2018-Jun-09 17:00N 43°50' W 001°42'0 0.7
2018-Jun-09 16:30N 43°51' W 001°42'0 0.5
2018-Jun-09 16:00N 43°51' W 001°42'0 0.3
2018-Jun-09 15:30N 43°51' W 001°42'1 1.4
2018-Jun-09 14:30N 43°50' W 001°41'2 3.1
2018-Jun-09 14:00N 43°48' W 001°41'1 1.6
2018-Jun-09 13:30N 43°47' W 001°42'0 0.9
2018-Jun-09 13:00N 43°47' W 001°41'1 2.0
2018-Jun-09 12:30N 43°48' W 001°41'1 2.9
2018-Jun-09 12:01N 43°50' W 001°41'1 1.5
2018-Jun-09 11:31N 43°51' W 001°41'0 0.3
2018-Jun-09 11:01N 43°51' W 001°42'1 1.9
2018-Jun-09 10:31N 43°50' W 001°41'1 2.3
2018-Jun-09 10:01N 43°49' W 001°41'2 3.2
2018-Jun-09 09:31N 43°47' W 001°41'3 5.7
2018-Jun-09 09:01N 43°44' W 001°42'611.1
2018-Jun-09 08:31N 43°39' W 001°45'611.1
2018-Jun-09 08:00N 43°34' W 001°48'510.8
2018-Jun-09 07:30N 43°29' W 001°51'510.7
2018-Jun-09 07:01N 43°24' W 001°54'5 9.0
2018-Jun-09 06:29N 43°20' W 001°55'0 0.9
2018-Jun-09 06:00N 43°19' W 001°56'0 0.0
2018-Jun-09 02:59N 43°19' W 001°56'0 0.0
2018-Jun-09 02:30N 43°19' W 001°56'0 0.0
2018-Jun-09 01:59N 43°19' W 001°56'0 0.0
2018-Jun-09 01:17N 43°19' W 001°56'0 0.0
2018-Jun-09 00:56N 43°19' W 001°56'0 0.0
2018-Jun-09 00:29N 43°19' W 001°56'0 0.0
2018-Jun-08 23:53N 43°19' W 001°56'0 0.0
2018-Jun-08 23:30N 43°19' W 001°56'0 0.0
2018-Jun-08 22:56N 43°19' W 001°56'0 0.0
2018-Jun-08 22:29N 43°19' W 001°56'0 0.0
2018-Jun-08 21:59N 43°19' W 001°56'0 0.0
2018-Jun-08 21:25N 43°19' W 001°56'0 0.0
2018-Jun-08 20:52N 43°19' W 001°56'0 0.0
2018-Jun-08 20:28N 43°19' W 001°56'0 0.0
2018-Jun-08 16:02N 43°19' W 001°56'0 0.0
2018-Jun-08 15:49N 43°19' W 001°56'1 2.0
2018-Jun-08 15:30N 43°20' W 001°55'510.2
2018-Jun-08 15:01N 43°25' W 001°54'510.8
2018-Jun-08 14:30N 43°30' W 001°51'510.9
2018-Jun-08 14:00N 43°35' W 001°48'611.1
2018-Jun-08 13:30N 43°40' W 001°45'611.2
2018-Jun-08 13:00N 43°45' W 001°42'3 5.3
2018-Jun-08 12:30N 43°48' W 001°41'1 2.9
2018-Jun-08 12:01N 43°49' W 001°40'2 3.3
2018-Jun-08 11:30N 43°50' W 001°39'0 0.5
2018-Jun-08 11:01N 43°51' W 001°39'0 0.6
2018-Jun-08 10:30N 43°51' W 001°40'0 0.3
2018-Jun-08 10:00N 43°50' W 001°40'1 2.1
2018-Jun-08 09:30N 43°50' W 001°40'1 2.9
2018-Jun-08 09:00N 43°48' W 001°41'1 1.7
2018-Jun-08 08:30N 43°47' W 001°40'0 0.2
2018-Jun-08 08:00N 43°47' W 001°41'0 0.2
2018-Jun-08 07:31N 43°47' W 001°41'1 2.6
2018-Jun-08 07:00N 43°49' W 001°41'1 2.9
2018-Jun-08 06:31N 43°50' W 001°41'1 2.2
2018-Jun-08 06:00N 43°51' W 001°41'3 6.7
2018-Jun-08 05:30N 43°48' W 001°42'0 0.7
2018-Jun-08 05:00N 43°48' W 001°42'0 0.6
2018-Jun-08 04:30N 43°47' W 001°42'0 0.7
2018-Jun-08 04:00N 43°47' W 001°42'0 0.7
2018-Jun-08 03:30N 43°47' W 001°42'0 0.8
2018-Jun-08 03:01N 43°46' W 001°42'0 0.7
2018-Jun-08 02:30N 43°46' W 001°41'0 0.7
2018-Jun-08 02:01N 43°46' W 001°41'0 0.7
2018-Jun-08 01:30N 43°46' W 001°40'0 0.5
2018-Jun-08 01:00N 43°46' W 001°40'0 0.6
2018-Jun-08 00:30N 43°46' W 001°40'0 0.6
2018-Jun-08 00:00N 43°46' W 001°39'0 0.6
2018-Jun-07 23:30N 43°46' W 001°39'0 0.6
2018-Jun-07 23:01N 43°46' W 001°39'0 0.6
2018-Jun-07 22:30N 43°46' W 001°38'0 0.7
2018-Jun-07 22:00N 43°47' W 001°38'0 0.7
2018-Jun-07 21:30N 43°47' W 001°38'0 0.7
2018-Jun-07 21:00N 43°47' W 001°37'0 0.8
2018-Jun-07 20:30N 43°48' W 001°37'0 0.8
2018-Jun-07 20:00N 43°48' W 001°37'1 2.2
2018-Jun-07 19:30N 43°48' W 001°38'3 6.0
2018-Jun-07 19:00N 43°49' W 001°42'1 2.4
2018-Jun-07 18:30N 43°50' W 001°42'2 3.3
2018-Jun-07 17:49N 43°52' W 001°41'1 1.8
2018-Jun-07 17:31N 43°51' W 001°41'2 3.6
2018-Jun-07 17:00N 43°50' W 001°42'0 0.7
2018-Jun-07 16:31N 43°50' W 001°41'0 0.7
2018-Jun-07 16:00N 43°50' W 001°41'0 0.7
2018-Jun-07 15:30N 43°50' W 001°41'0 0.6
2018-Jun-07 15:00N 43°51' W 001°41'0 0.6
2018-Jun-07 14:30N 43°51' W 001°41'0 0.6
2018-Jun-07 14:00N 43°51' W 001°41'0 0.6
2018-Jun-07 13:30N 43°51' W 001°41'1 1.0
2018-Jun-07 13:00N 43°51' W 001°41'1 2.3
2018-Jun-07 12:30N 43°50' W 001°41'1 2.9
2018-Jun-07 12:00N 43°48' W 001°41'1 1.6
2018-Jun-07 11:30N 43°48' W 001°41'0 0.7
2018-Jun-07 11:00N 43°48' W 001°41'0 0.6
2018-Jun-07 10:30N 43°48' W 001°42'0 0.7
2018-Jun-07 10:00N 43°48' W 001°41'1 1.9
2018-Jun-07 09:30N 43°49' W 001°41'1 2.9
2018-Jun-07 09:01N 43°50' W 001°41'2 3.5
2018-Jun-07 08:30N 43°52' W 001°41'1 1.7
2018-Jun-07 08:00N 43°51' W 001°41'1 2.8
2018-Jun-07 07:31N 43°50' W 001°41'1 2.4
2018-Jun-07 07:00N 43°49' W 001°41'2 3.1
2018-Jun-07 06:30N 43°47' W 001°41'3 5.6
2018-Jun-07 06:00N 43°50' W 001°41'3 6.5
2018-Jun-07 05:30N 43°49' W 001°37'3 6.9
2018-Jun-07 05:00N 43°47' W 001°33'1 2.5
2018-Jun-07 04:30N 43°46' W 001°31'0 0.8
2018-Jun-07 04:00N 43°46' W 001°32'0 0.8
2018-Jun-07 03:30N 43°46' W 001°33'0 0.7
2018-Jun-07 03:00N 43°46' W 001°33'0 0.7
2018-Jun-07 02:30N 43°45' W 001°33'0 0.7
2018-Jun-07 02:01N 43°45' W 001°34'0 0.6
2018-Jun-07 01:30N 43°45' W 001°34'0 0.6
2018-Jun-07 01:00N 43°45' W 001°35'0 0.6
2018-Jun-07 00:30N 43°45' W 001°35'0 0.6
2018-Jun-07 00:00N 43°45' W 001°36'0 0.7
2018-Jun-06 23:30N 43°45' W 001°36'0 0.5
2018-Jun-06 23:00N 43°45' W 001°36'0 0.5
2018-Jun-06 22:30N 43°45' W 001°37'0 0.4
2018-Jun-06 22:00N 43°45' W 001°37'0 0.4
2018-Jun-06 21:31N 43°45' W 001°37'0 0.5
2018-Jun-06 21:01N 43°45' W 001°38'0 0.5
2018-Jun-06 20:31N 43°46' W 001°38'1 2.3
2018-Jun-06 19:59N 43°46' W 001°40'2 3.3
2018-Jun-06 19:30N 43°46' W 001°42'2 3.5
2018-Jun-06 19:00N 43°47' W 001°44'1 2.8
2018-Jun-06 18:30N 43°48' W 001°44'2 3.2
2018-Jun-06 18:00N 43°50' W 001°44'1 1.8
2018-Jun-06 17:30N 43°50' W 001°43'1 2.0
2018-Jun-06 17:00N 43°51' W 001°43'4 8.4
2018-Jun-06 16:30N 43°55' W 001°40'4 8.3
2018-Jun-06 16:00N 43°59' W 001°37'0 0.5
2018-Jun-06 15:30N 43°59' W 001°37'0 0.4
2018-Jun-06 15:00N 43°59' W 001°38'0 0.6
2018-Jun-06 14:30N 43°59' W 001°38'0 0.5
2018-Jun-06 14:00N 43°59' W 001°38'0 0.5
2018-Jun-06 13:31N 43°59' W 001°38'0 0.6
2018-Jun-06 13:00N 43°60' W 001°39'1 1.7
2018-Jun-06 12:30N 43°59' W 001°39'2 3.2
2018-Jun-06 12:00N 43°57' W 001°39'1 1.8
2018-Jun-06 11:30N 43°58' W 001°40'0 0.5
2018-Jun-06 11:00N 43°58' W 001°40'1 2.0
2018-Jun-06 10:30N 43°59' W 001°41'2 4.6
2018-Jun-06 10:00N 44°00' W 001°44'1 2.2
2018-Jun-06 09:30N 43°59' W 001°44'1 2.8
2018-Jun-06 09:01N 43°58' W 001°44'1 2.5
2018-Jun-06 08:30N 43°57' W 001°44'3 6.5
2018-Jun-06 07:59N 43°60' W 001°43'1 2.0
2018-Jun-06 07:30N 44°00' W 001°44'1 2.2
2018-Jun-06 07:00N 43°59' W 001°45'1 2.8
2018-Jun-06 06:30N 43°58' W 001°45'  

Dump ship's entire track history